sensor_id;sensor_type;location;lat;lon;timestamp;pressure;altitude;pressure_sealevel;temperature;humidity
41706;BME280;27385;51.096;17.190;2023-04-30T00:00:36;100424.13;;;9.80;85.51
41706;BME280;27385;51.096;17.190;2023-04-30T00:03:26;100428.13;;;9.77;85.65
41706;BME280;27385;51.096;17.190;2023-04-30T00:05:57;100427.41;;;9.76;85.74
41706;BME280;27385;51.096;17.190;2023-04-30T00:08:28;100426.86;;;9.74;85.80
41706;BME280;27385;51.096;17.190;2023-04-30T00:10:59;100431.98;;;9.72;85.76
41706;BME280;27385;51.096;17.190;2023-04-30T00:13:30;100431.27;;;9.70;85.96
41706;BME280;27385;51.096;17.190;2023-04-30T00:16:01;100437.21;;;9.69;85.93
41706;BME280;27385;51.096;17.190;2023-04-30T00:18:32;100441.95;;;9.67;85.89
41706;BME280;27385;51.096;17.190;2023-04-30T00:21:03;100443.29;;;9.66;85.70
41706;BME280;27385;51.096;17.190;2023-04-30T00:23:34;100442.52;;;9.64;86.07
41706;BME280;27385;51.096;17.190;2023-04-30T00:26:05;100447.41;;;9.63;86.00
41706;BME280;27385;51.096;17.190;2023-04-30T00:28:36;100445.38;;;9.63;85.83
41706;BME280;27385;51.096;17.190;2023-04-30T00:31:06;100439.84;;;9.62;85.88
41706;BME280;27385;51.096;17.190;2023-04-30T00:33:37;100437.20;;;9.62;85.68
41706;BME280;27385;51.096;17.190;2023-04-30T00:36:08;100445.41;;;9.62;85.59
41706;BME280;27385;51.096;17.190;2023-04-30T00:38:39;100449.12;;;9.62;85.73
41706;BME280;27385;51.096;17.190;2023-04-30T00:41:10;100453.46;;;9.62;85.63
41706;BME280;27385;51.096;17.190;2023-04-30T00:43:40;100458.27;;;9.61;85.56
41706;BME280;27385;51.096;17.190;2023-04-30T00:46:11;100458.70;;;9.61;85.63
41706;BME280;27385;51.096;17.190;2023-04-30T00:48:42;100460.35;;;9.59;85.56
41706;BME280;27385;51.096;17.190;2023-04-30T00:51:14;100458.92;;;9.59;85.38
41706;BME280;27385;51.096;17.190;2023-04-30T00:53:45;100464.27;;;9.59;85.46
41706;BME280;27385;51.096;17.190;2023-04-30T00:56:16;100469.89;;;9.58;85.43
41706;BME280;27385;51.096;17.190;2023-04-30T00:58:47;100467.57;;;9.57;85.57
41706;BME280;27385;51.096;17.190;2023-04-30T01:01:20;100476.20;;;9.56;85.36
41706;BME280;27385;51.096;17.190;2023-04-30T01:03:50;100475.67;;;9.55;85.45
41706;BME280;27385;51.096;17.190;2023-04-30T01:06:21;100479.76;;;9.54;85.31
41706;BME280;27385;51.096;17.190;2023-04-30T01:08:53;100479.08;;;9.54;85.15
41706;BME280;27385;51.096;17.190;2023-04-30T01:11:35;100485.00;;;9.53;85.17
41706;BME280;27385;51.096;17.190;2023-04-30T01:14:11;100485.27;;;9.52;85.20
41706;BME280;27385;51.096;17.190;2023-04-30T01:16:47;100487.55;;;9.50;85.33
41706;BME280;27385;51.096;17.190;2023-04-30T01:19:34;100490.48;;;9.48;85.22
41706;BME280;27385;51.096;17.190;2023-04-30T01:22:11;100484.95;;;9.45;85.17
41706;BME280;27385;51.096;17.190;2023-04-30T01:24:52;100485.41;;;9.44;85.19
41706;BME280;27385;51.096;17.190;2023-04-30T01:30:09;100488.76;;;9.42;85.08
41706;BME280;27385;51.096;17.190;2023-04-30T01:32:41;100488.79;;;9.41;85.13
41706;BME280;27385;51.096;17.190;2023-04-30T01:35:12;100492.75;;;9.40;85.20
41706;BME280;27385;51.096;17.190;2023-04-30T01:37:50;100492.17;;;9.39;85.21
41706;BME280;27385;51.096;17.190;2023-04-30T01:40:26;100496.21;;;9.37;85.35
41706;BME280;27385;51.096;17.190;2023-04-30T01:43:16;100502.96;;;9.34;85.39
41706;BME280;27385;51.096;17.190;2023-04-30T01:45:59;100501.56;;;9.31;85.09
41706;BME280;27385;51.096;17.190;2023-04-30T01:48:42;100504.70;;;9.29;85.33
41706;BME280;27385;51.096;17.190;2023-04-30T01:51:18;100505.27;;;9.25;85.39
41706;BME280;27385;51.096;17.190;2023-04-30T01:53:50;100502.00;;;9.21;85.33
41706;BME280;27385;51.096;17.190;2023-04-30T01:56:31;100505.48;;;9.18;85.38
41706;BME280;27385;51.096;17.190;2023-04-30T01:59:03;100508.50;;;9.15;85.40
41706;BME280;27385;51.096;17.190;2023-04-30T02:01:34;100507.32;;;9.11;85.53
41706;BME280;27385;51.096;17.190;2023-04-30T02:04:05;100508.52;;;9.07;85.32
41706;BME280;27385;51.096;17.190;2023-04-30T02:06:36;100513.32;;;9.03;85.44
41706;BME280;27385;51.096;17.190;2023-04-30T02:09:07;100507.64;;;8.98;85.42
41706;BME280;27385;51.096;17.190;2023-04-30T02:11:39;100512.73;;;8.93;85.58
41706;BME280;27385;51.096;17.190;2023-04-30T02:14:10;100510.45;;;8.89;85.45
41706;BME280;27385;51.096;17.190;2023-04-30T02:16:41;100518.91;;;8.85;85.40
41706;BME280;27385;51.096;17.190;2023-04-30T02:19:12;100521.18;;;8.80;85.47
41706;BME280;27385;51.096;17.190;2023-04-30T02:21:43;100522.52;;;8.74;85.58
41706;BME280;27385;51.096;17.190;2023-04-30T02:24:14;100520.81;;;8.69;85.52
41706;BME280;27385;51.096;17.190;2023-04-30T02:26:44;100520.98;;;8.65;85.51
41706;BME280;27385;51.096;17.190;2023-04-30T02:29:15;100526.06;;;8.61;85.68
41706;BME280;27385;51.096;17.190;2023-04-30T02:31:46;100529.46;;;8.56;85.62
41706;BME280;27385;51.096;17.190;2023-04-30T02:34:17;100527.68;;;8.51;85.59
41706;BME280;27385;51.096;17.190;2023-04-30T02:36:49;100529.55;;;8.46;85.56
41706;BME280;27385;51.096;17.190;2023-04-30T02:39:20;100532.65;;;8.42;85.57
41706;BME280;27385;51.096;17.190;2023-04-30T02:41:53;100533.02;;;8.37;85.59
41706;BME280;27385;51.096;17.190;2023-04-30T02:44:25;100533.14;;;8.32;85.68
41706;BME280;27385;51.096;17.190;2023-04-30T02:46:56;100536.77;;;8.26;85.79
41706;BME280;27385;51.096;17.190;2023-04-30T02:49:29;100534.34;;;8.23;85.85
41706;BME280;27385;51.096;17.190;2023-04-30T02:52:01;100537.09;;;8.20;85.83
41706;BME280;27385;51.096;17.190;2023-04-30T02:54:33;100539.04;;;8.11;85.90
41706;BME280;27385;51.096;17.190;2023-04-30T02:57:05;100538.23;;;8.01;85.76
41706;BME280;27385;51.096;17.190;2023-04-30T02:59:37;100542.38;;;7.93;85.89
41706;BME280;27385;51.096;17.190;2023-04-30T03:02:09;100543.55;;;7.87;86.16
41706;BME280;27385;51.096;17.190;2023-04-30T03:04:41;100546.35;;;7.78;86.19
41706;BME280;27385;51.096;17.190;2023-04-30T03:07:13;100550.88;;;7.74;86.26
41706;BME280;27385;51.096;17.190;2023-04-30T03:09:45;100550.45;;;7.70;86.41
41706;BME280;27385;51.096;17.190;2023-04-30T03:12:17;100551.88;;;7.68;86.33
41706;BME280;27385;51.096;17.190;2023-04-30T03:14:49;100556.81;;;7.64;86.43
41706;BME280;27385;51.096;17.190;2023-04-30T03:17:21;100558.73;;;7.61;86.38
41706;BME280;27385;51.096;17.190;2023-04-30T03:19:53;100563.92;;;7.58;86.44
41706;BME280;27385;51.096;17.190;2023-04-30T03:22:25;100563.98;;;7.54;86.48
41706;BME280;27385;51.096;17.190;2023-04-30T03:24:57;100564.51;;;7.52;86.55
41706;BME280;27385;51.096;17.190;2023-04-30T03:27:28;100568.20;;;7.48;86.45
41706;BME280;27385;51.096;17.190;2023-04-30T03:30:01;100571.20;;;7.45;86.49
41706;BME280;27385;51.096;17.190;2023-04-30T03:32:33;100573.42;;;7.40;86.45
41706;BME280;27385;51.096;17.190;2023-04-30T03:35:06;100573.54;;;7.37;86.59
41706;BME280;27385;51.096;17.190;2023-04-30T03:37:39;100573.92;;;7.32;86.55
41706;BME280;27385;51.096;17.190;2023-04-30T03:40:11;100581.86;;;7.28;86.65
41706;BME280;27385;51.096;17.190;2023-04-30T03:42:43;100579.15;;;7.19;86.63
41706;BME280;27385;51.096;17.190;2023-04-30T03:45:16;100580.52;;;7.11;86.57
41706;BME280;27385;51.096;17.190;2023-04-30T03:47:48;100583.61;;;7.06;86.86
41706;BME280;27385;51.096;17.190;2023-04-30T03:50:20;100588.75;;;7.02;86.99
41706;BME280;27385;51.096;17.190;2023-04-30T03:52:55;100588.73;;;6.98;87.35
41706;BME280;27385;51.096;17.190;2023-04-30T03:55:27;100593.95;;;6.96;87.56
41706;BME280;27385;51.096;17.190;2023-04-30T03:57:58;100592.05;;;6.95;87.69
41706;BME280;27385;51.096;17.190;2023-04-30T04:00:29;100600.69;;;6.94;87.88
41706;BME280;27385;51.096;17.190;2023-04-30T04:03:01;100602.73;;;6.92;87.95
41706;BME280;27385;51.096;17.190;2023-04-30T04:05:32;100610.88;;;6.90;87.93
41706;BME280;27385;51.096;17.190;2023-04-30T04:08:03;100616.58;;;6.90;88.21
41706;BME280;27385;51.096;17.190;2023-04-30T04:10:35;100622.29;;;6.90;88.43
41706;BME280;27385;51.096;17.190;2023-04-30T04:13:06;100626.73;;;6.93;88.62
41706;BME280;27385;51.096;17.190;2023-04-30T04:15:37;100629.48;;;6.96;88.47
41706;BME280;27385;51.096;17.190;2023-04-30T04:18:07;100634.34;;;7.00;88.67
41706;BME280;27385;51.096;17.190;2023-04-30T04:20:39;100632.14;;;7.05;88.59
41706;BME280;27385;51.096;17.190;2023-04-30T04:23:09;100637.69;;;7.09;88.38
41706;BME280;27385;51.096;17.190;2023-04-30T04:25:40;100639.75;;;7.14;88.75
41706;BME280;27385;51.096;17.190;2023-04-30T04:28:12;100644.61;;;7.19;88.29
41706;BME280;27385;51.096;17.190;2023-04-30T04:30:43;100648.11;;;7.23;88.41
41706;BME280;27385;51.096;17.190;2023-04-30T04:33:14;100649.64;;;7.27;88.32
41706;BME280;27385;51.096;17.190;2023-04-30T04:35:45;100652.66;;;7.31;88.16
41706;BME280;27385;51.096;17.190;2023-04-30T04:38:16;100659.42;;;7.36;88.09
41706;BME280;27385;51.096;17.190;2023-04-30T04:40:52;100658.69;;;7.40;87.80
41706;BME280;27385;51.096;17.190;2023-04-30T04:43:23;100663.55;;;7.44;87.55
41706;BME280;27385;51.096;17.190;2023-04-30T04:45:54;100660.20;;;7.46;87.48
41706;BME280;27385;51.096;17.190;2023-04-30T04:48:25;100662.34;;;7.49;87.60
41706;BME280;27385;51.096;17.190;2023-04-30T04:50:56;100670.48;;;7.52;87.46
41706;BME280;27385;51.096;17.190;2023-04-30T04:53:27;100675.73;;;7.56;87.38
41706;BME280;27385;51.096;17.190;2023-04-30T04:55:57;100676.78;;;7.58;87.19
41706;BME280;27385;51.096;17.190;2023-04-30T04:58:29;100682.39;;;7.61;87.04
41706;BME280;27385;51.096;17.190;2023-04-30T05:00:59;100686.87;;;7.65;86.89
41706;BME280;27385;51.096;17.190;2023-04-30T05:03:32;100686.23;;;7.67;86.58
41706;BME280;27385;51.096;17.190;2023-04-30T05:06:06;100691.75;;;7.71;86.63
41706;BME280;27385;51.096;17.190;2023-04-30T05:08:36;100694.64;;;7.72;86.19
41706;BME280;27385;51.096;17.190;2023-04-30T05:11:07;100698.13;;;7.75;86.21
41706;BME280;27385;51.096;17.190;2023-04-30T05:13:38;100700.03;;;7.77;86.29
41706;BME280;27385;51.096;17.190;2023-04-30T05:16:09;100706.83;;;7.81;86.27
41706;BME280;27385;51.096;17.190;2023-04-30T05:18:40;100708.69;;;7.84;86.47
41706;BME280;27385;51.096;17.190;2023-04-30T05:21:11;100711.49;;;7.88;86.03
41706;BME280;27385;51.096;17.190;2023-04-30T05:23:42;100711.00;;;7.91;86.18
41706;BME280;27385;51.096;17.190;2023-04-30T05:26:13;100712.48;;;7.94;85.64
41706;BME280;27385;51.096;17.190;2023-04-30T05:28:44;100710.94;;;7.95;85.73
41706;BME280;27385;51.096;17.190;2023-04-30T05:31:15;100713.74;;;7.96;85.62
41706;BME280;27385;51.096;17.190;2023-04-30T05:33:46;100720.52;;;7.98;85.60
41706;BME280;27385;51.096;17.190;2023-04-30T05:36:16;100724.52;;;8.01;85.88
41706;BME280;27385;51.096;17.190;2023-04-30T05:38:47;100720.95;;;8.04;85.67
41706;BME280;27385;51.096;17.190;2023-04-30T05:41:18;100722.89;;;8.07;85.77
41706;BME280;27385;51.096;17.190;2023-04-30T05:43:49;100722.88;;;8.10;85.51
41706;BME280;27385;51.096;17.190;2023-04-30T05:46:20;100721.71;;;8.14;85.94
41706;BME280;27385;51.096;17.190;2023-04-30T05:48:51;100724.55;;;8.19;85.53
41706;BME280;27385;51.096;17.190;2023-04-30T05:51:22;100727.48;;;8.24;85.60
41706;BME280;27385;51.096;17.190;2023-04-30T05:53:53;100729.09;;;8.29;85.38
41706;BME280;27385;51.096;17.190;2023-04-30T05:56:26;100726.30;;;8.33;85.28
41706;BME280;27385;51.096;17.190;2023-04-30T05:58:57;100729.98;;;8.39;85.59
41706;BME280;27385;51.096;17.190;2023-04-30T06:01:28;100728.58;;;8.47;85.40
41706;BME280;27385;51.096;17.190;2023-04-30T06:03:59;100732.79;;;8.56;84.87
41706;BME280;27385;51.096;17.190;2023-04-30T06:06:33;100731.32;;;8.63;84.48
41706;BME280;27385;51.096;17.190;2023-04-30T06:09:04;100735.77;;;8.72;84.85
41706;BME280;27385;51.096;17.190;2023-04-30T06:11:35;100741.06;;;8.81;83.93
41706;BME280;27385;51.096;17.190;2023-04-30T06:14:06;100745.40;;;8.88;83.64
41706;BME280;27385;51.096;17.190;2023-04-30T06:16:38;100747.20;;;8.95;83.76
41706;BME280;27385;51.096;17.190;2023-04-30T06:19:08;100750.27;;;9.03;83.43
41706;BME280;27385;51.096;17.190;2023-04-30T06:21:39;100755.11;;;9.09;83.53
41706;BME280;27385;51.096;17.190;2023-04-30T06:24:12;100748.83;;;9.15;82.96
41706;BME280;27385;51.096;17.190;2023-04-30T06:26:43;100749.21;;;9.20;82.85
41706;BME280;27385;51.096;17.190;2023-04-30T06:29:14;100753.16;;;9.24;82.63
41706;BME280;27385;51.096;17.190;2023-04-30T06:31:44;100752.90;;;9.29;82.02
41706;BME280;27385;51.096;17.190;2023-04-30T06:34:15;100759.23;;;9.33;82.55
41706;BME280;27385;51.096;17.190;2023-04-30T06:36:46;100760.95;;;9.42;82.45
41706;BME280;27385;51.096;17.190;2023-04-30T06:39:17;100760.27;;;9.50;82.22
41706;BME280;27385;51.096;17.190;2023-04-30T06:41:48;100761.13;;;9.58;82.48
41706;BME280;27385;51.096;17.190;2023-04-30T06:44:19;100762.95;;;9.66;82.73
41706;BME280;27385;51.096;17.190;2023-04-30T06:46:50;100765.56;;;9.72;81.63
41706;BME280;27385;51.096;17.190;2023-04-30T06:49:21;100760.34;;;9.73;81.07
41706;BME280;27385;51.096;17.190;2023-04-30T06:51:51;100760.78;;;9.78;81.47
41706;BME280;27385;51.096;17.190;2023-04-30T06:54:22;100763.24;;;9.82;80.76
41706;BME280;27385;51.096;17.190;2023-04-30T06:56:55;100766.33;;;9.87;80.92
41706;BME280;27385;51.096;17.190;2023-04-30T06:59:25;100769.95;;;9.91;80.59
41706;BME280;27385;51.096;17.190;2023-04-30T07:01:56;100769.41;;;9.97;80.60
41706;BME280;27385;51.096;17.190;2023-04-30T07:04:27;100766.75;;;10.01;80.33
41706;BME280;27385;51.096;17.190;2023-04-30T07:07:01;100773.89;;;10.06;79.94
41706;BME280;27385;51.096;17.190;2023-04-30T07:09:33;100777.05;;;10.10;79.95
41706;BME280;27385;51.096;17.190;2023-04-30T07:12:05;100777.73;;;10.15;79.79
41706;BME280;27385;51.096;17.190;2023-04-30T07:14:36;100783.79;;;10.21;79.35
41706;BME280;27385;51.096;17.190;2023-04-30T07:17:07;100779.05;;;10.24;79.30
41706;BME280;27385;51.096;17.190;2023-04-30T07:19:37;100785.34;;;10.27;78.30
41706;BME280;27385;51.096;17.190;2023-04-30T07:22:08;100786.34;;;10.24;76.68
41706;BME280;27385;51.096;17.190;2023-04-30T07:24:39;100783.42;;;10.24;77.50
41706;BME280;27385;51.096;17.190;2023-04-30T07:27:10;100790.36;;;10.25;78.10
41706;BME280;27385;51.096;17.190;2023-04-30T07:29:41;100787.92;;;10.30;78.61
41706;BME280;27385;51.096;17.190;2023-04-30T07:32:12;100787.47;;;10.37;77.96
41706;BME280;27385;51.096;17.190;2023-04-30T07:34:43;100790.26;;;10.42;77.52
41706;BME280;27385;51.096;17.190;2023-04-30T07:37:14;100793.06;;;10.49;77.67
41706;BME280;27385;51.096;17.190;2023-04-30T07:39:44;100798.01;;;10.54;76.94
41706;BME280;27385;51.096;17.190;2023-04-30T07:42:15;100797.27;;;10.59;76.96
41706;BME280;27385;51.096;17.190;2023-04-30T07:44:46;100790.38;;;10.67;77.42
41706;BME280;27385;51.096;17.190;2023-04-30T07:47:17;100796.11;;;10.78;77.08
41706;BME280;27385;51.096;17.190;2023-04-30T07:49:49;100797.98;;;10.89;77.20
41706;BME280;27385;51.096;17.190;2023-04-30T07:52:20;100797.59;;;11.00;76.73
41706;BME280;27385;51.096;17.190;2023-04-30T07:54:51;100802.67;;;11.05;75.99
41706;BME280;27385;51.096;17.190;2023-04-30T07:57:22;100807.88;;;11.14;76.02
41706;BME280;27385;51.096;17.190;2023-04-30T07:59:55;100807.70;;;11.21;74.89
41706;BME280;27385;51.096;17.190;2023-04-30T08:02:26;100812.41;;;11.23;75.31
41706;BME280;27385;51.096;17.190;2023-04-30T08:04:57;100814.00;;;11.23;74.67
41706;BME280;27385;51.096;17.190;2023-04-30T08:07:27;100817.13;;;11.22;75.04
41706;BME280;27385;51.096;17.190;2023-04-30T08:09:58;100819.36;;;11.26;74.29
41706;BME280;27385;51.096;17.190;2023-04-30T08:12:29;100820.13;;;11.28;74.29
41706;BME280;27385;51.096;17.190;2023-04-30T08:15:05;100818.93;;;11.35;73.75
41706;BME280;27385;51.096;17.190;2023-04-30T08:17:39;100826.65;;;11.41;73.30
41706;BME280;27385;51.096;17.190;2023-04-30T08:20:11;100821.09;;;11.42;72.93
41706;BME280;27385;51.096;17.190;2023-04-30T08:22:42;100814.39;;;11.47;73.43
41706;BME280;27385;51.096;17.190;2023-04-30T08:25:13;100820.43;;;11.53;72.22
41706;BME280;27385;51.096;17.190;2023-04-30T08:27:44;100817.91;;;11.53;72.48
41706;BME280;27385;51.096;17.190;2023-04-30T08:30:15;100815.33;;;11.60;72.83
41706;BME280;27385;51.096;17.190;2023-04-30T08:32:46;100814.27;;;11.70;71.81
41706;BME280;27385;51.096;17.190;2023-04-30T08:35:18;100818.38;;;11.79;71.65
41706;BME280;27385;51.096;17.190;2023-04-30T08:37:49;100812.86;;;11.86;71.26
41706;BME280;27385;51.096;17.190;2023-04-30T08:40:20;100816.30;;;11.92;70.74
41706;BME280;27385;51.096;17.190;2023-04-30T08:43:03;100818.31;;;11.95;70.65
41706;BME280;27385;51.096;17.190;2023-04-30T08:45:35;100818.77;;;11.92;70.37
41706;BME280;27385;51.096;17.190;2023-04-30T08:48:09;100822.16;;;11.88;69.69
41706;BME280;27385;51.096;17.190;2023-04-30T08:50:42;100826.56;;;11.86;69.10
41706;BME280;27385;51.096;17.190;2023-04-30T08:53:15;100828.45;;;11.80;68.26
41706;BME280;27385;51.096;17.190;2023-04-30T08:55:49;100834.87;;;11.75;68.81
41706;BME280;27385;51.096;17.190;2023-04-30T08:58:20;100836.11;;;11.62;66.99
41706;BME280;27385;51.096;17.190;2023-04-30T09:00:51;100841.45;;;11.49;66.61
41706;BME280;27385;51.096;17.190;2023-04-30T09:03:22;100835.11;;;11.46;67.16
41706;BME280;27385;51.096;17.190;2023-04-30T09:05:53;100832.06;;;11.46;66.45
41706;BME280;27385;51.096;17.190;2023-04-30T09:08:41;100836.38;;;11.50;66.18
41706;BME280;27385;51.096;17.190;2023-04-30T09:11:29;100832.52;;;11.60;66.46
41706;BME280;27385;51.096;17.190;2023-04-30T09:14:01;100837.21;;;11.73;66.03
41706;BME280;27385;51.096;17.190;2023-04-30T09:16:47;100834.94;;;11.82;63.31
41706;BME280;27385;51.096;17.190;2023-04-30T09:19:28;100833.70;;;11.92;63.19
41706;BME280;27385;51.096;17.190;2023-04-30T09:22:09;100844.70;;;11.99;63.34
41706;BME280;27385;51.096;17.190;2023-04-30T09:24:49;100841.33;;;12.05;62.35
41706;BME280;27385;51.096;17.190;2023-04-30T09:27:22;100838.46;;;12.04;62.92
41706;BME280;27385;51.096;17.190;2023-04-30T09:29:53;100842.72;;;12.10;62.88
41706;BME280;27385;51.096;17.190;2023-04-30T09:32:24;100844.18;;;12.16;62.02
41706;BME280;27385;51.096;17.190;2023-04-30T09:34:57;100843.45;;;12.20;62.71
41706;BME280;27385;51.096;17.190;2023-04-30T09:37:37;100848.14;;;12.19;62.00
41706;BME280;27385;51.096;17.190;2023-04-30T09:40:10;100839.91;;;12.17;62.61
41706;BME280;27385;51.096;17.190;2023-04-30T09:43:02;100842.13;;;12.26;62.09
41706;BME280;27385;51.096;17.190;2023-04-30T09:45:45;100849.56;;;12.32;61.69
41706;BME280;27385;51.096;17.190;2023-04-30T09:48:19;100838.23;;;12.32;60.73
41706;BME280;27385;51.096;17.190;2023-04-30T09:50:52;100841.27;;;12.33;60.77
41706;BME280;27385;51.096;17.190;2023-04-30T09:53:23;100842.61;;;12.34;60.42
41706;BME280;27385;51.096;17.190;2023-04-30T09:55:55;100840.31;;;12.38;59.71
41706;BME280;27385;51.096;17.190;2023-04-30T09:58:28;100841.63;;;12.47;59.81
41706;BME280;27385;51.096;17.190;2023-04-30T10:01:03;100838.44;;;12.56;58.68
41706;BME280;27385;51.096;17.190;2023-04-30T10:03:35;100848.07;;;12.49;57.12
41706;BME280;27385;51.096;17.190;2023-04-30T10:06:07;100840.25;;;12.37;58.01
41706;BME280;27385;51.096;17.190;2023-04-30T10:08:41;100830.05;;;12.37;59.42
41706;BME280;27385;51.096;17.190;2023-04-30T10:11:17;100837.27;;;12.46;59.05
41706;BME280;27385;51.096;17.190;2023-04-30T10:13:54;100833.75;;;12.55;57.69
41706;BME280;27385;51.096;17.190;2023-04-30T10:16:36;100828.91;;;12.60;58.28
41706;BME280;27385;51.096;17.190;2023-04-30T10:19:12;100829.59;;;12.59;56.16
41706;BME280;27385;51.096;17.190;2023-04-30T10:21:46;100830.42;;;12.54;55.90
41706;BME280;27385;51.096;17.190;2023-04-30T10:24:18;100830.21;;;12.52;55.84
41706;BME280;27385;51.096;17.190;2023-04-30T10:26:50;100831.07;;;12.49;55.78
41706;BME280;27385;51.096;17.190;2023-04-30T10:29:21;100832.81;;;12.50;56.38
41706;BME280;27385;51.096;17.190;2023-04-30T10:31:53;100828.98;;;12.53;56.26
41706;BME280;27385;51.096;17.190;2023-04-30T10:34:32;100831.86;;;12.55;56.27
41706;BME280;27385;51.096;17.190;2023-04-30T10:37:09;100826.30;;;12.55;56.03
41706;BME280;27385;51.096;17.190;2023-04-30T10:39:43;100825.42;;;12.56;55.28
41706;BME280;27385;51.096;17.190;2023-04-30T10:42:14;100821.60;;;12.56;55.92
41706;BME280;27385;51.096;17.190;2023-04-30T10:44:45;100817.98;;;12.66;56.71
41706;BME280;27385;51.096;17.190;2023-04-30T10:47:17;100817.59;;;12.77;55.75
41706;BME280;27385;51.096;17.190;2023-04-30T10:49:49;100814.45;;;12.78;54.53
41706;BME280;27385;51.096;17.190;2023-04-30T10:52:29;100811.21;;;12.74;55.36
41706;BME280;27385;51.096;17.190;2023-04-30T10:55:04;100808.43;;;12.75;55.23
41706;BME280;27385;51.096;17.190;2023-04-30T10:57:42;100812.57;;;12.81;54.97
41706;BME280;27385;51.096;17.190;2023-04-30T11:00:23;100806.05;;;12.82;54.91
41706;BME280;27385;51.096;17.190;2023-04-30T11:03:02;100811.23;;;12.86;54.11
41706;BME280;27385;51.096;17.190;2023-04-30T11:05:37;100810.94;;;12.86;53.93
41706;BME280;27385;51.096;17.190;2023-04-30T11:08:11;100804.50;;;12.83;53.67
41706;BME280;27385;51.096;17.190;2023-04-30T11:11:07;100801.31;;;12.81;53.60
41706;BME280;27385;51.096;17.190;2023-04-30T11:13:43;100811.23;;;12.90;52.60
41706;BME280;27385;51.096;17.190;2023-04-30T11:16:16;100806.73;;;12.95;52.72
41706;BME280;27385;51.096;17.190;2023-04-30T11:19:06;100805.40;;;13.02;52.27
41706;BME280;27385;51.096;17.190;2023-04-30T11:21:43;100806.61;;;13.03;51.46
41706;BME280;27385;51.096;17.190;2023-04-30T11:24:50;100802.16;;;12.96;52.00
41706;BME280;27385;51.096;17.190;2023-04-30T11:27:25;100805.71;;;12.99;52.03
41706;BME280;27385;51.096;17.190;2023-04-30T11:29:57;100808.59;;;13.04;51.59
41706;BME280;27385;51.096;17.190;2023-04-30T11:32:33;100813.73;;;13.07;51.49
41706;BME280;27385;51.096;17.190;2023-04-30T11:35:05;100809.94;;;13.11;52.09
41706;BME280;27385;51.096;17.190;2023-04-30T11:37:38;100805.67;;;13.15;51.71
41706;BME280;27385;51.096;17.190;2023-04-30T11:40:11;100800.23;;;13.19;51.00
41706;BME280;27385;51.096;17.190;2023-04-30T11:42:43;100805.57;;;13.24;51.24
41706;BME280;27385;51.096;17.190;2023-04-30T11:45:16;100808.20;;;13.28;51.28
41706;BME280;27385;51.096;17.190;2023-04-30T11:47:50;100800.88;;;13.29;50.96
41706;BME280;27385;51.096;17.190;2023-04-30T11:50:23;100800.02;;;13.27;49.92
41706;BME280;27385;51.096;17.190;2023-04-30T11:52:58;100799.73;;;13.28;49.79
41706;BME280;27385;51.096;17.190;2023-04-30T11:55:30;100798.36;;;13.31;49.73
41706;BME280;27385;51.096;17.190;2023-04-30T11:58:01;100802.84;;;13.34;49.44
41706;BME280;27385;51.096;17.190;2023-04-30T12:00:32;100800.92;;;13.36;50.10
41706;BME280;27385;51.096;17.190;2023-04-30T12:03:03;100806.30;;;13.40;49.97
41706;BME280;27385;51.096;17.190;2023-04-30T12:05:35;100814.35;;;13.39;48.98
41706;BME280;27385;51.096;17.190;2023-04-30T12:08:07;100806.55;;;13.37;49.17
41706;BME280;27385;51.096;17.190;2023-04-30T12:10:39;100809.25;;;13.36;48.75
41706;BME280;27385;51.096;17.190;2023-04-30T12:13:14;100802.21;;;13.34;49.29
41706;BME280;27385;51.096;17.190;2023-04-30T12:15:57;100806.73;;;13.41;49.42
41706;BME280;27385;51.096;17.190;2023-04-30T12:18:28;100803.90;;;13.43;48.72
41706;BME280;27385;51.096;17.190;2023-04-30T12:21:02;100809.83;;;13.43;48.53
41706;BME280;27385;51.096;17.190;2023-04-30T12:23:33;100810.09;;;13.44;47.29
41706;BME280;27385;51.096;17.190;2023-04-30T12:26:04;100800.16;;;13.39;46.39
41706;BME280;27385;51.096;17.190;2023-04-30T12:28:36;100797.98;;;13.38;47.25
41706;BME280;27385;51.096;17.190;2023-04-30T12:31:06;100799.89;;;13.41;47.14
41706;BME280;27385;51.096;17.190;2023-04-30T12:33:37;100798.06;;;13.47;46.83
41706;BME280;27385;51.096;17.190;2023-04-30T12:36:11;100798.48;;;13.48;46.23
41706;BME280;27385;51.096;17.190;2023-04-30T12:38:45;100791.42;;;13.47;45.93
41706;BME280;27385;51.096;17.190;2023-04-30T12:41:16;100791.30;;;13.52;46.22
41706;BME280;27385;51.096;17.190;2023-04-30T12:43:48;100788.40;;;13.60;46.22
41706;BME280;27385;51.096;17.190;2023-04-30T12:46:27;100796.85;;;13.64;45.70
41706;BME280;27385;51.096;17.190;2023-04-30T12:48:58;100794.90;;;13.64;45.57
41706;BME280;27385;51.096;17.190;2023-04-30T12:51:29;100795.16;;;13.64;45.45
41706;BME280;27385;51.096;17.190;2023-04-30T12:54:02;100796.14;;;13.68;43.40
41706;BME280;27385;51.096;17.190;2023-04-30T12:56:33;100795.54;;;13.68;43.31
41706;BME280;27385;51.096;17.190;2023-04-30T12:59:13;100790.94;;;13.75;44.29
41706;BME280;27385;51.096;17.190;2023-04-30T13:01:46;100793.38;;;13.81;43.77
41706;BME280;27385;51.096;17.190;2023-04-30T13:04:16;100790.89;;;13.83;43.98
41706;BME280;27385;51.096;17.190;2023-04-30T13:06:47;100783.45;;;13.84;43.68
41706;BME280;27385;51.096;17.190;2023-04-30T13:09:18;100782.22;;;13.86;43.06
41706;BME280;27385;51.096;17.190;2023-04-30T13:11:50;100792.52;;;13.89;42.00
41706;BME280;27385;51.096;17.190;2023-04-30T13:14:21;100793.79;;;13.84;42.60
41706;BME280;27385;51.096;17.190;2023-04-30T13:16:51;100790.02;;;13.81;42.53